createdAt,value
2022-10-30T00:01:34.251Z,93333.06
2022-10-30T00:04:00.705Z,93322.00
2022-10-30T00:06:27.104Z,93320.09
2022-10-30T00:08:53.573Z,93317.16
2022-10-30T00:11:20.045Z,93313.44
2022-10-30T00:13:46.605Z,93310.84
2022-10-30T00:16:13.050Z,93315.34
2022-10-30T00:18:41.958Z,93308.22
2022-10-30T00:21:11.668Z,93305.63
2022-10-30T00:23:38.290Z,93306.94
2022-10-30T00:26:07.010Z,93306.28
2022-10-30T00:28:33.607Z,93311.53
2022-10-30T00:31:02.414Z,93302.34
2022-10-30T00:33:29.743Z,93302.91
2022-10-30T00:35:57.080Z,93305.47
2022-10-30T00:38:23.634Z,93302.78
2022-10-30T00:40:50.374Z,93298.47
2022-10-30T00:43:29.263Z,93303.44
2022-10-30T00:46:01.324Z,93295.28
2022-10-30T00:48:28.255Z,93300.56
2022-10-30T00:50:57.066Z,93294.00
2022-10-30T00:53:23.846Z,93285.13
2022-10-30T00:55:55.953Z,93288.88
2022-10-30T00:58:29.018Z,93291.28
2022-10-30T01:00:58.022Z,93286.50
2022-10-30T01:03:27.475Z,93283.28
2022-10-30T01:06:00.505Z,93284.34
2022-10-30T01:08:27.347Z,93279.28
2022-10-30T01:10:54.479Z,93289.53
2022-10-30T01:13:23.204Z,93284.78
2022-10-30T01:16:18.705Z,93284.44
2022-10-30T01:18:53.608Z,93286.19
2022-10-30T01:21:40.408Z,93283.53
2022-10-30T01:24:14.913Z,93281.34
2022-10-30T01:26:59.666Z,93282.84
2022-10-30T01:29:38.277Z,93270.72
2022-10-30T01:32:12.168Z,93270.72
2022-10-30T01:34:51.467Z,93274.84
2022-10-30T01:37:28.424Z,93272.72
2022-10-30T01:39:54.942Z,93269.25
2022-10-30T01:42:48.273Z,93267.84
2022-10-30T01:45:49.772Z,93265.66
2022-10-30T01:48:31.403Z,93266.69
2022-10-30T01:51:09.383Z,93257.53
2022-10-30T01:54:01.824Z,93257.00
2022-10-30T01:57:00.866Z,93260.88
2022-10-30T01:59:39.667Z,93259.13
2022-10-30T02:02:07.914Z,93258.84
2022-10-30T02:04:34.920Z,93256.00
2022-10-30T02:07:01.482Z,93257.34
2022-10-30T02:09:28.655Z,93255.72
2022-10-30T02:11:55.513Z,93255.69
2022-10-30T02:14:26.880Z,93254.59
2022-10-30T02:16:56.804Z,93250.88
2022-10-30T02:19:23.229Z,93254.75
2022-10-30T02:21:50.900Z,93250.22
2022-10-30T02:24:17.846Z,93249.13
2022-10-30T02:26:44.276Z,93253.28
2022-10-30T02:29:10.737Z,93257.72
2022-10-30T02:31:37.502Z,93254.31
2022-10-30T02:34:04.404Z,93245.53
2022-10-30T02:36:32.629Z,93243.88
2022-10-30T02:39:00.035Z,93253.59
2022-10-30T02:41:26.468Z,93254.66
2022-10-30T02:43:53.537Z,93251.13
2022-10-30T02:46:20.451Z,93253.75
2022-10-30T02:48:48.407Z,93260.66
2022-10-30T02:51:14.872Z,93257.56
2022-10-30T02:53:41.344Z,93251.00
2022-10-30T02:56:11.687Z,93258.28
2022-10-30T02:58:40.734Z,93261.78
2022-10-30T03:01:13.566Z,93252.59
2022-10-30T03:03:41.626Z,93255.28
2022-10-30T03:06:10.529Z,93257.09
2022-10-30T03:08:37.058Z,93252.59
2022-10-30T03:11:08.025Z,93259.09
2022-10-30T03:13:36.098Z,93258.47
2022-10-30T03:16:06.275Z,93261.81
2022-10-30T03:18:33.967Z,93257.66
2022-10-30T03:21:08.628Z,93259.81
2022-10-30T03:23:35.720Z,93257.34
2022-10-30T03:26:03.248Z,93257.84
2022-10-30T03:28:32.792Z,93259.13
2022-10-30T03:31:05.392Z,93262.31
2022-10-30T03:33:33.030Z,93262.13
2022-10-30T03:36:00.586Z,93258.66
2022-10-30T03:38:27.251Z,93260.00
2022-10-30T03:40:54.016Z,93261.34
2022-10-30T03:43:21.220Z,93256.66
2022-10-30T03:45:54.109Z,93264.16
2022-10-30T03:48:22.760Z,93265.72
2022-10-30T03:50:49.936Z,93258.34
2022-10-30T03:53:17.085Z,93264.38
2022-10-30T03:55:43.510Z,93261.44
2022-10-30T03:58:09.953Z,93263.75
2022-10-30T04:00:37.069Z,93258.81
2022-10-30T04:03:07.743Z,93263.41
2022-10-30T04:05:37.326Z,93264.53
2022-10-30T04:08:12.835Z,93267.16
2022-10-30T04:10:44.881Z,93267.69
2022-10-30T04:13:13.624Z,93260.56
2022-10-30T04:15:56.233Z,93263.50
2022-10-30T04:18:25.248Z,93267.16
2022-10-30T04:20:51.673Z,93262.94
2022-10-30T04:23:20.320Z,93269.31
2022-10-30T04:25:47.705Z,93272.47
2022-10-30T04:28:14.606Z,93265.00
2022-10-30T04:30:41.998Z,93267.22
2022-10-30T04:33:12.188Z,93263.72
2022-10-30T04:35:40.388Z,93264.19
2022-10-30T04:38:16.548Z,93265.78
2022-10-30T04:40:44.435Z,93261.59
2022-10-30T04:43:13.515Z,93262.94
2022-10-30T04:45:41.090Z,93260.88
2022-10-30T04:48:15.956Z,93259.28
2022-10-30T04:50:43.749Z,93260.94
2022-10-30T04:53:16.095Z,93254.06
2022-10-30T04:55:44.539Z,93252.91
2022-10-30T04:58:12.992Z,93251.88
2022-10-30T05:00:42.059Z,93252.47
2022-10-30T05:03:22.648Z,93252.13
2022-10-30T05:06:06.449Z,93246.09
2022-10-30T05:08:33.443Z,93248.81
2022-10-30T05:11:05.329Z,93249.38
2022-10-30T05:13:32.317Z,93249.13
2022-10-30T05:15:58.713Z,93244.03
2022-10-30T05:18:25.163Z,93244.03
2022-10-30T05:20:52.296Z,93245.38
2022-10-30T05:23:18.676Z,93249.38
2022-10-30T05:25:45.534Z,93245.25
2022-10-30T05:28:14.037Z,93248.34
2022-10-30T05:30:45.843Z,93235.47
2022-10-30T05:33:28.005Z,93241.03
2022-10-30T05:35:54.610Z,93239.28
2022-10-30T05:38:21.047Z,93237.63
2022-10-30T05:40:48.000Z,93240.31
2022-10-30T05:43:14.774Z,93238.47
2022-10-30T05:45:41.215Z,93243.00
2022-10-30T05:48:07.895Z,93239.94
2022-10-30T05:50:41.640Z,93248.97
2022-10-30T05:53:28.437Z,93246.22
2022-10-30T05:55:57.882Z,93237.72
2022-10-30T05:58:25.718Z,93235.81
2022-10-30T06:00:54.772Z,93241.59
2022-10-30T06:03:34.977Z,93240.13
2022-10-30T06:06:01.905Z,93245.09
2022-10-30T06:08:28.371Z,93247.25
2022-10-30T06:10:58.021Z,93246.50
2022-10-30T06:13:35.112Z,93248.97
2022-10-30T06:16:07.438Z,93252.00
2022-10-30T06:18:57.201Z,93249.53
2022-10-30T06:21:24.997Z,93249.28
2022-10-30T06:24:17.456Z,93248.47
2022-10-30T06:26:59.167Z,93256.44
2022-10-30T06:29:25.837Z,93243.41
2022-10-30T06:31:52.276Z,93252.88
2022-10-30T06:34:18.740Z,93252.38
2022-10-30T06:36:47.562Z,93252.88
2022-10-30T06:39:14.066Z,93251.34
2022-10-30T06:41:56.432Z,93249.75
2022-10-30T06:44:45.836Z,93254.84
2022-10-30T06:47:12.282Z,93247.38
2022-10-30T06:49:38.890Z,93246.13
2022-10-30T06:52:05.348Z,93250.06
2022-10-30T06:54:32.739Z,93255.31
2022-10-30T06:56:59.107Z,93260.22
2022-10-30T06:59:37.385Z,93260.72
2022-10-30T07:02:24.254Z,93257.16
2022-10-30T07:04:55.916Z,93260.06
2022-10-30T07:07:22.516Z,93256.91
2022-10-30T07:09:49.598Z,93262.22
2022-10-30T07:12:19.868Z,93265.00
2022-10-30T07:14:58.965Z,93276.91
2022-10-30T07:17:52.395Z,93267.50
2022-10-30T07:20:22.159Z,93271.00
2022-10-30T07:22:48.884Z,93263.28
2022-10-30T07:25:15.552Z,93267.59
2022-10-30T07:28:02.023Z,93265.03
2022-10-30T07:30:42.712Z,93271.88
2022-10-30T07:33:17.379Z,93268.78
2022-10-30T07:36:03.657Z,93264.88
2022-10-30T07:38:51.761Z,93268.13
2022-10-30T07:41:31.997Z,93272.06
2022-10-30T07:44:17.166Z,93271.84
2022-10-30T07:47:09.655Z,93263.25
2022-10-30T07:49:45.469Z,93273.25
2022-10-30T07:52:17.209Z,93272.81
2022-10-30T07:54:45.785Z,93273.16
2022-10-30T07:57:39.673Z,93272.75
2022-10-30T08:00:24.661Z,93271.00
2022-10-30T08:03:01.896Z,93274.31
2022-10-30T08:05:44.822Z,93266.00
2022-10-30T08:08:13.915Z,93259.72
2022-10-30T08:10:40.372Z,93266.63
2022-10-30T08:13:07.466Z,93272.47
2022-10-30T08:15:34.054Z,93270.44
2022-10-30T08:18:02.095Z,93276.56
2022-10-30T08:20:29.172Z,93272.44
2022-10-30T08:22:57.936Z,93270.69
2022-10-30T08:25:27.627Z,93268.09
2022-10-30T08:27:59.670Z,93267.13
2022-10-30T08:30:32.250Z,93266.41
2022-10-30T08:33:00.563Z,93268.84
2022-10-30T08:35:50.534Z,93269.69
2022-10-30T08:38:18.143Z,93268.16
2022-10-30T08:40:49.159Z,93263.75
2022-10-30T08:43:16.382Z,93271.19
2022-10-30T08:45:43.158Z,93265.44
2022-10-30T08:48:14.929Z,93264.69
2022-10-30T08:50:43.684Z,93261.84
2022-10-30T08:53:12.421Z,93262.66
2022-10-30T08:55:39.269Z,93266.88
2022-10-30T08:58:12.538Z,93257.66
2022-10-30T09:00:39.424Z,93263.75
2022-10-30T09:03:11.596Z,93264.56
2022-10-30T09:05:40.894Z,93260.06
2022-10-30T09:08:16.482Z,93257.69
2022-10-30T09:11:02.114Z,93259.78
2022-10-30T09:13:29.237Z,93256.34
2022-10-30T09:16:04.125Z,93257.38
2022-10-30T09:18:33.922Z,93256.00
2022-10-30T09:21:03.199Z,93261.25
2022-10-30T09:23:34.461Z,93254.06
2022-10-30T09:26:20.788Z,93261.69
2022-10-30T09:28:53.547Z,93262.69
2022-10-30T09:31:46.220Z,93256.50
2022-10-30T09:34:16.896Z,93252.97
2022-10-30T09:37:00.054Z,93265.56
2022-10-30T09:39:29.866Z,93259.38
2022-10-30T09:42:08.837Z,93261.28
2022-10-30T09:48:18.041Z,93256.78
2022-10-30T09:51:21.569Z,93254.75
2022-10-30T09:54:00.296Z,93260.53
2022-10-30T09:56:44.650Z,93257.25
2022-10-30T09:59:17.807Z,93261.41
2022-10-30T10:01:57.891Z,93259.47
2022-10-30T10:04:34.723Z,93260.72
2022-10-30T10:07:35.036Z,93264.53
2022-10-30T10:10:33.822Z,93267.31
2022-10-30T10:13:27.622Z,93264.19
2022-10-30T10:15:58.808Z,93265.97
2022-10-30T10:21:16.995Z,93264.31
2022-10-30T10:23:48.703Z,93259.34
2022-10-30T10:26:27.312Z,93256.13
2022-10-30T10:29:09.477Z,93254.63
2022-10-30T10:31:53.982Z,93254.31
2022-10-30T10:34:45.424Z,93256.00
2022-10-30T10:37:42.442Z,93257.69
2022-10-30T10:40:59.583Z,93247.09
2022-10-30T10:43:43.737Z,93252.53
2022-10-30T10:46:40.214Z,93249.31
2022-10-30T10:49:15.740Z,93245.28
2022-10-30T10:52:07.629Z,93240.13
2022-10-30T10:54:52.460Z,93237.63
2022-10-30T10:57:36.189Z,93242.69
2022-10-30T11:00:06.212Z,93236.41
2022-10-30T11:02:39.070Z,93234.22
2022-10-30T11:05:25.225Z,93233.75
2022-10-30T11:07:52.375Z,93233.44
2022-10-30T11:10:20.240Z,93226.97
2022-10-30T11:12:46.936Z,93239.84
2022-10-30T11:15:32.989Z,93236.34
2022-10-30T11:18:03.333Z,93236.34
2022-10-30T11:20:37.458Z,93234.75
2022-10-30T11:23:04.376Z,93233.34
2022-10-30T11:25:36.356Z,93227.88
2022-10-30T11:28:05.553Z,93233.03
2022-10-30T11:30:32.413Z,93229.03
2022-10-30T11:32:59.535Z,93228.00
2022-10-30T11:35:26.422Z,93228.25
2022-10-30T11:38:13.668Z,93230.94
2022-10-30T11:40:47.145Z,93226.41
2022-10-30T11:43:18.171Z,93232.47
2022-10-30T11:45:45.133Z,93226.41
2022-10-30T11:48:23.388Z,93220.25
2022-10-30T11:50:51.584Z,93220.25
2022-10-30T11:53:24.563Z,93222.13
2022-10-30T11:55:51.150Z,93228.22
2022-10-30T11:58:32.759Z,93223.53
2022-10-30T12:01:03.060Z,93219.13
2022-10-30T12:03:35.880Z,93214.94
2022-10-30T12:06:30.120Z,93211.88
2022-10-30T12:09:00.502Z,93213.91
2022-10-30T12:11:29.708Z,93209.72
2022-10-30T12:13:57.231Z,93209.72
2022-10-30T12:16:33.769Z,93208.41
2022-10-30T12:19:06.644Z,93203.91
2022-10-30T12:21:39.799Z,93205.50
2022-10-30T12:24:16.212Z,93203.47
2022-10-30T12:26:47.580Z,93201.22
2022-10-30T12:29:17.856Z,93195.28
2022-10-30T12:31:59.765Z,93195.19
2022-10-30T12:34:38.183Z,93196.88
2022-10-30T12:37:29.083Z,93205.16
2022-10-30T12:40:05.363Z,93200.81
2022-10-30T12:42:37.355Z,93191.84
2022-10-30T12:45:19.544Z,93199.16
2022-10-30T12:47:52.816Z,93192.97
2022-10-30T12:50:42.631Z,93199.66
2022-10-30T12:53:26.511Z,93193.84
2022-10-30T12:56:00.184Z,93196.97
2022-10-30T12:58:49.051Z,93193.72
2022-10-30T13:01:36.866Z,93194.50
2022-10-30T13:04:28.720Z,93190.50
2022-10-30T13:07:19.797Z,93194.97
2022-10-30T13:10:03.460Z,93187.78
2022-10-30T13:12:36.081Z,93189.25
2022-10-30T13:15:33.616Z,93187.09
2022-10-30T13:18:13.968Z,93183.59
2022-10-30T13:20:42.115Z,93185.31
2022-10-30T13:23:20.505Z,93180.69
2022-10-30T13:26:07.834Z,93187.63
2022-10-30T13:28:52.360Z,93177.56
2022-10-30T13:31:31.236Z,93178.56
2022-10-30T13:34:02.344Z,93180.91
2022-10-30T13:39:41.862Z,93184.50
2022-10-30T13:42:45.897Z,93190.66
2022-10-30T13:45:51.103Z,93191.38
2022-10-30T13:48:26.367Z,93187.13
2022-10-30T13:51:08.058Z,93184.13
2022-10-30T13:53:39.115Z,93185.44
2022-10-30T13:56:06.978Z,93190.00
2022-10-30T13:58:51.718Z,93191.09
2022-10-30T14:01:39.588Z,93188.88
2022-10-30T14:04:17.102Z,93188.09
2022-10-30T14:07:17.142Z,93178.38
2022-10-30T14:09:53.121Z,93188.94
2022-10-30T14:12:45.751Z,93184.84
2022-10-30T14:15:33.430Z,93186.34
2022-10-30T14:18:24.560Z,93190.13
2022-10-30T14:20:53.089Z,93191.84
2022-10-30T14:23:19.399Z,93187.13
2022-10-30T14:26:13.901Z,93185.75
2022-10-30T14:28:44.121Z,93188.03
2022-10-30T14:31:11.838Z,93183.06
2022-10-30T14:33:44.556Z,93189.63
2022-10-30T14:36:22.819Z,93178.97
2022-10-30T14:38:55.188Z,93184.41
2022-10-30T14:41:31.490Z,93191.13
2022-10-30T14:44:23.345Z,93192.91
2022-10-30T14:47:22.073Z,93187.44
2022-10-30T14:50:17.628Z,93194.38
2022-10-30T14:53:05.670Z,93190.41
2022-10-30T14:55:40.399Z,93182.84
2022-10-30T14:58:15.147Z,93185.91
2022-10-30T15:00:42.957Z,93189.66
2022-10-30T15:03:12.390Z,93190.84
2022-10-30T15:06:18.279Z,93196.13
2022-10-30T15:09:08.718Z,93190.47
2022-10-30T15:12:02.125Z,93198.22
2022-10-30T15:14:52.652Z,93192.09
2022-10-30T15:17:24.102Z,93200.06
2022-10-30T15:19:50.574Z,93190.50
2022-10-30T15:22:22.153Z,93201.09
2022-10-30T15:24:50.928Z,93185.31
2022-10-30T15:27:19.317Z,93198.44
2022-10-30T15:29:53.515Z,93195.44
2022-10-30T15:32:22.797Z,93198.16
2022-10-30T15:35:18.541Z,93198.34
2022-10-30T15:37:57.855Z,93193.03
2022-10-30T15:40:24.780Z,93203.59
2022-10-30T15:42:52.705Z,93196.50
2022-10-30T15:45:22.936Z,93196.34
2022-10-30T15:48:00.760Z,93189.56
2022-10-30T15:50:27.925Z,93205.41
2022-10-30T15:52:54.584Z,93198.22
2022-10-30T15:55:30.387Z,93195.22
2022-10-30T15:58:04.579Z,93198.91
2022-10-30T16:00:35.025Z,93199.09
2022-10-30T16:03:04.016Z,93195.56
2022-10-30T16:05:31.084Z,93200.56
2022-10-30T16:08:02.190Z,93197.09
2022-10-30T16:10:39.469Z,93194.00
2022-10-30T16:13:05.901Z,93193.84
2022-10-30T16:15:39.365Z,93198.63
2022-10-30T16:18:14.423Z,93204.16
2022-10-30T16:20:43.977Z,93200.59
2022-10-30T16:23:13.202Z,93204.44
2022-10-30T16:25:46.792Z,93205.69
2022-10-30T16:28:37.572Z,93205.88
2022-10-30T16:31:14.220Z,93206.22
2022-10-30T16:33:42.741Z,93202.66
2022-10-30T16:36:14.872Z,93212.91
2022-10-30T16:38:41.656Z,93208.50
2022-10-30T16:41:13.298Z,93212.59
2022-10-30T16:44:03.738Z,93212.59
2022-10-30T16:46:39.892Z,93211.94
2022-10-30T16:49:13.169Z,93212.31
2022-10-30T16:51:40.314Z,93213.38
2022-10-30T16:54:17.113Z,93218.88
2022-10-30T16:56:47.377Z,93214.31
2022-10-30T16:59:20.210Z,93213.91
2022-10-30T17:01:53.665Z,93217.44
2022-10-30T17:04:20.510Z,93226.75
2022-10-30T17:06:47.291Z,93231.19
2022-10-30T17:09:27.472Z,93225.22
2022-10-30T17:12:18.848Z,93232.78
2022-10-30T17:15:10.597Z,93234.38
2022-10-30T17:17:39.442Z,93242.09
2022-10-30T17:20:22.679Z,93242.66
2022-10-30T17:23:05.556Z,93244.25
2022-10-30T17:25:39.155Z,93250.94
2022-10-30T17:28:06.509Z,93248.63
2022-10-30T17:30:36.148Z,93254.25
2022-10-30T17:33:24.144Z,93256.38
2022-10-30T17:35:51.072Z,93256.19
2022-10-30T17:38:17.970Z,93258.06
2022-10-30T17:40:44.384Z,93254.97
2022-10-30T17:43:15.158Z,93263.19
2022-10-30T17:45:43.167Z,93267.16
2022-10-30T17:48:13.325Z,93274.84
2022-10-30T17:50:40.238Z,93270.09
2022-10-30T17:53:06.653Z,93273.56
2022-10-30T17:55:34.885Z,93271.75
2022-10-30T17:58:01.315Z,93284.97
2022-10-30T18:00:27.793Z,93282.63
2022-10-30T18:02:54.211Z,93285.53
2022-10-30T18:05:23.610Z,93279.47
2022-10-30T18:10:21.346Z,93290.31
2022-10-30T18:12:47.738Z,93290.88
2022-10-30T18:15:32.046Z,93290.34
2022-10-30T18:17:58.692Z,93295.63
2022-10-30T18:20:26.124Z,93295.91
2022-10-30T18:22:53.599Z,93296.72
2022-10-30T18:25:26.625Z,93303.31
2022-10-30T18:27:53.673Z,93296.72
2022-10-30T18:30:20.780Z,93304.13
2022-10-30T18:32:47.308Z,93308.34
2022-10-30T18:35:35.070Z,93306.75
2022-10-30T18:38:01.848Z,93303.06
2022-10-30T18:40:29.335Z,93301.47
2022-10-30T18:42:55.834Z,93302.00
2022-10-30T18:45:22.248Z,93313.63
2022-10-30T18:47:49.477Z,93302.53
2022-10-30T18:50:17.015Z,93310.44
2022-10-30T18:52:43.751Z,93306.19
2022-10-30T18:55:19.103Z,93310.16
2022-10-30T18:57:46.354Z,93313.34
2022-10-30T19:00:14.749Z,93307.53
2022-10-30T19:02:41.603Z,93307.25
2022-10-30T19:05:19.991Z,93307.78
2022-10-30T19:07:46.683Z,93305.69
2022-10-30T19:10:13.135Z,93306.72
2022-10-30T19:12:46.659Z,93304.59
2022-10-30T19:15:45.010Z,93298.53
2022-10-30T19:18:12.083Z,93297.19
2022-10-30T19:21:02.824Z,93305.06
2022-10-30T19:23:25.703Z,93299.00
2022-10-30T19:25:52.748Z,93295.31
2022-10-30T19:28:20.787Z,93297.13
2022-10-30T19:30:54.569Z,93298.94
2022-10-30T19:33:22.794Z,93300.50
2022-10-30T19:35:56.580Z,93293.66
2022-10-30T19:38:23.103Z,93295.00
2022-10-30T19:40:50.370Z,93301.28
2022-10-30T19:43:17.198Z,93308.63
2022-10-30T19:45:43.747Z,93298.59
2022-10-30T19:48:17.695Z,93302.75
2022-10-30T19:50:47.707Z,93298.50
2022-10-30T19:53:14.774Z,93303.72
2022-10-30T19:55:43.117Z,93301.34
2022-10-30T19:58:15.198Z,93303.44
2022-10-30T20:00:44.134Z,93304.25
2022-10-30T20:03:13.245Z,93302.59
2022-10-30T20:05:42.805Z,93309.38
2022-10-30T20:08:20.144Z,93304.94
2022-10-30T20:11:04.624Z,93310.44
2022-10-30T20:13:33.116Z,93315.44
2022-10-30T20:16:02.349Z,93313.84
2022-10-30T20:18:31.834Z,93313.28
2022-10-30T20:21:01.513Z,93317.75
2022-10-30T20:23:28.637Z,93316.16
2022-10-30T20:26:00.204Z,93316.63
2022-10-30T20:28:36.466Z,93318.19
2022-10-30T20:31:03.132Z,93321.91
2022-10-30T20:33:29.554Z,93313.66
2022-10-30T20:35:56.308Z,93317.31
2022-10-30T20:38:29.162Z,93312.78
2022-10-30T20:40:57.106Z,93315.41
2022-10-30T20:43:35.390Z,93308.88
2022-10-30T20:46:03.369Z,93316.84
2022-10-30T20:48:29.838Z,93313.97
2022-10-30T20:50:57.768Z,93317.03
2022-10-30T20:53:24.429Z,93320.91
2022-10-30T20:55:51.154Z,93313.47
2022-10-30T20:58:17.990Z,93322.41
2022-10-30T21:00:44.655Z,93312.41
2022-10-30T21:03:14.299Z,93320.28
2022-10-30T21:05:44.596Z,93319.66
2022-10-30T21:08:13.260Z,93312.06
2022-10-30T21:10:40.402Z,93319.09
2022-10-30T21:13:09.036Z,93313.28
2022-10-30T21:15:42.432Z,93318.53
2022-10-30T21:18:10.801Z,93317.44
2022-10-30T21:20:37.651Z,93315.38
2022-10-30T21:23:05.034Z,93323.97
2022-10-30T21:25:32.263Z,93318.91
2022-10-30T21:27:59.554Z,93319.06
2022-10-30T21:30:26.401Z,93317.88
2022-10-30T21:32:52.835Z,93321.59
2022-10-30T21:35:19.779Z,93321.84
2022-10-30T21:37:46.165Z,93324.16
2022-10-30T21:40:13.048Z,93326.72
2022-10-30T21:42:39.506Z,93326.94
2022-10-30T21:45:06.921Z,93331.34
2022-10-30T21:47:33.345Z,93333.31
2022-10-30T21:49:59.761Z,93328.91
2022-10-30T21:52:26.270Z,93329.97
2022-10-30T21:54:52.668Z,93327.81
2022-10-30T21:57:19.158Z,93327.28
2022-10-30T21:59:45.563Z,93319.88
2022-10-30T22:02:15.347Z,93319.88
2022-10-30T22:04:41.873Z,93326.69
2022-10-30T22:07:08.604Z,93325.66
2022-10-30T22:09:35.031Z,93326.09
2022-10-30T22:12:01.435Z,93324.19
2022-10-30T22:14:29.224Z,93326.03
2022-10-30T22:16:55.720Z,93328.16
2022-10-30T22:19:22.116Z,93315.09
2022-10-30T22:21:48.475Z,93316.09
2022-10-30T22:24:15.928Z,93312.28
2022-10-30T22:26:42.321Z,93317.94
2022-10-30T22:29:09.146Z,93316.84
2022-10-30T22:31:35.545Z,93314.72
2022-10-30T22:34:02.299Z,93312.25
2022-10-30T22:36:31.086Z,93310.34
2022-10-30T22:39:06.204Z,93307.50
2022-10-30T22:41:37.286Z,93313.13
2022-10-30T22:44:04.825Z,93305.31
2022-10-30T22:46:31.215Z,93300.31
2022-10-30T22:48:58.457Z,93305.00
2022-10-30T22:51:25.472Z,93310.50
2022-10-30T22:54:00.608Z,93305.81
2022-10-30T22:56:29.739Z,93306.03
2022-10-30T22:58:57.044Z,93317.56
2022-10-30T23:01:25.961Z,93307.78
2022-10-30T23:03:55.572Z,93311.75
2022-10-30T23:06:22.814Z,93310.19
2022-10-30T23:08:51.998Z,93303.25
2022-10-30T23:11:18.770Z,93314.16
2022-10-30T23:13:45.392Z,93311.69
2022-10-30T23:16:14.485Z,93309.09
2022-10-30T23:18:41.605Z,93311.69
2022-10-30T23:21:12.637Z,93303.84
2022-10-30T23:23:40.385Z,93301.22
2022-10-30T23:26:13.227Z,93307.41
2022-10-30T23:28:40.033Z,93311.56
2022-10-30T23:31:08.243Z,93309.56
2022-10-30T23:33:34.735Z,93304.00
2022-10-30T23:36:02.568Z,93308.16
2022-10-30T23:38:29.284Z,93308.28
2022-10-30T23:40:55.724Z,93310.75
2022-10-30T23:43:22.233Z,93309.47
2022-10-30T23:45:48.641Z,93302.66
2022-10-30T23:48:15.019Z,93306.84
2022-10-30T23:50:41.401Z,93302.97
2022-10-30T23:53:07.784Z,93300.91
2022-10-30T23:55:34.217Z,93312.66
2022-10-30T23:58:00.914Z,93308.53
